Terminal Aerodrome Forecast
Issued by NWS

Current Version | Previous Version | Text Only | Print | Product List | Glossary Off
Versions: 1 2 3 4 5 6 7 8 9 10 11 12 13 14 15 16 17 18 19 20 21 22 23 24 25 26 27 28

000
FTUS41 KRLX 032348
TAFCKB
TAF
KCKB 032348Z 0400/0424 VRB03KT 6SM HZ SCT040 BKN080
     FM040500 VRB03KT 4SM BR BKN080
     FM040700 00000KT 2SM BR FEW001
     FM040900 00000KT 1/2SM FG SCT001 BKN045
     FM041200 00000KT 1SM BR SCT001 BKN045
     FM041300 00000KT P6SM BKN030
     FM041600 00000KT P6SM VCTS BKN035CB=

USA.gov is the U.S. government's official web portal to all federal, state and local government web resources and services.